sensor_id;sensor_type;location;lat;lon;timestamp;temperature;humidity
59771;DHT22;45649;53.014;6.600;2022-08-07T00:01:58;15.40;71.40
59771;DHT22;45649;53.014;6.600;2022-08-07T00:04:24;15.40;71.30
59771;DHT22;45649;53.014;6.600;2022-08-07T00:06:50;15.50;71.00
59771;DHT22;45649;53.014;6.600;2022-08-07T00:09:16;15.50;71.00
59771;DHT22;45649;53.014;6.600;2022-08-07T00:11:41;15.40;71.10
59771;DHT22;45649;53.014;6.600;2022-08-07T00:14:07;15.30;71.00
59771;DHT22;45649;53.014;6.600;2022-08-07T00:16:34;15.30;71.00
59771;DHT22;45649;53.014;6.600;2022-08-07T00:18:59;15.30;71.00
59771;DHT22;45649;53.014;6.600;2022-08-07T00:21:26;15.20;71.10
59771;DHT22;45649;53.014;6.600;2022-08-07T00:23:52;15.10;71.20
59771;DHT22;45649;53.014;6.600;2022-08-07T00:26:18;15.10;71.20
59771;DHT22;45649;53.014;6.600;2022-08-07T00:28:44;15.00;72.20
59771;DHT22;45649;53.014;6.600;2022-08-07T00:31:16;15.00;71.40
59771;DHT22;45649;53.014;6.600;2022-08-07T00:33:42;15.00;71.90
59771;DHT22;45649;53.014;6.600;2022-08-07T00:36:08;14.90;72.00
59771;DHT22;45649;53.014;6.600;2022-08-07T00:38:34;14.80;72.30
59771;DHT22;45649;53.014;6.600;2022-08-07T00:41:02;14.90;72.30
59771;DHT22;45649;53.014;6.600;2022-08-07T00:43:28;15.00;72.10
59771;DHT22;45649;53.014;6.600;2022-08-07T00:45:53;15.00;72.10
59771;DHT22;45649;53.014;6.600;2022-08-07T00:48:19;14.80;72.00
59771;DHT22;45649;53.014;6.600;2022-08-07T00:50:45;14.80;71.60
59771;DHT22;45649;53.014;6.600;2022-08-07T00:53:11;14.70;71.60
59771;DHT22;45649;53.014;6.600;2022-08-07T00:55:37;14.60;71.20
59771;DHT22;45649;53.014;6.600;2022-08-07T00:58:03;14.50;71.50
59771;DHT22;45649;53.014;6.600;2022-08-07T01:00:29;14.50;71.90
59771;DHT22;45649;53.014;6.600;2022-08-07T01:02:55;14.50;71.70
59771;DHT22;45649;53.014;6.600;2022-08-07T01:05:22;14.60;71.90
59771;DHT22;45649;53.014;6.600;2022-08-07T01:07:48;14.60;71.50
59771;DHT22;45649;53.014;6.600;2022-08-07T01:10:14;14.70;71.20
59771;DHT22;45649;53.014;6.600;2022-08-07T01:12:41;14.80;70.80
59771;DHT22;45649;53.014;6.600;2022-08-07T01:15:08;14.80;70.20
59771;DHT22;45649;53.014;6.600;2022-08-07T01:17:34;14.90;70.00
59771;DHT22;45649;53.014;6.600;2022-08-07T01:20:09;15.30;71.80
59771;DHT22;45649;53.014;6.600;2022-08-07T01:22:36;15.20;70.00
59771;DHT22;45649;53.014;6.600;2022-08-07T01:25:03;15.10;69.50
59771;DHT22;45649;53.014;6.600;2022-08-07T01:27:29;15.10;69.50
59771;DHT22;45649;53.014;6.600;2022-08-07T01:29:56;15.10;70.00
59771;DHT22;45649;53.014;6.600;2022-08-07T01:32:22;15.00;70.20
59771;DHT22;45649;53.014;6.600;2022-08-07T01:34:49;14.90;70.60
59771;DHT22;45649;53.014;6.600;2022-08-07T01:37:15;14.90;71.10
59771;DHT22;45649;53.014;6.600;2022-08-07T01:39:45;14.80;71.40
59771;DHT22;45649;53.014;6.600;2022-08-07T01:42:13;14.80;71.80
59771;DHT22;45649;53.014;6.600;2022-08-07T01:44:39;14.80;71.80
59771;DHT22;45649;53.014;6.600;2022-08-07T01:47:06;14.80;71.70
59771;DHT22;45649;53.014;6.600;2022-08-07T01:49:32;14.70;71.80
59771;DHT22;45649;53.014;6.600;2022-08-07T01:51:59;14.60;71.90
59771;DHT22;45649;53.014;6.600;2022-08-07T01:54:27;14.60;72.10
59771;DHT22;45649;53.014;6.600;2022-08-07T01:57:00;14.60;72.20
59771;DHT22;45649;53.014;6.600;2022-08-07T01:59:31;14.50;72.10
59771;DHT22;45649;53.014;6.600;2022-08-07T02:04:53;14.40;73.60
59771;DHT22;45649;53.014;6.600;2022-08-07T02:07:23;14.40;74.10
59771;DHT22;45649;53.014;6.600;2022-08-07T02:09:51;14.40;73.20
59771;DHT22;45649;53.014;6.600;2022-08-07T02:12:20;14.40;73.20
59771;DHT22;45649;53.014;6.600;2022-08-07T02:14:55;14.30;73.30
59771;DHT22;45649;53.014;6.600;2022-08-07T02:17:22;14.30;73.10
59771;DHT22;45649;53.014;6.600;2022-08-07T02:19:50;14.30;72.70
59771;DHT22;45649;53.014;6.600;2022-08-07T02:22:18;14.30;73.00
59771;DHT22;45649;53.014;6.600;2022-08-07T02:24:45;14.20;72.90
59771;DHT22;45649;53.014;6.600;2022-08-07T02:27:14;14.20;73.20
59771;DHT22;45649;53.014;6.600;2022-08-07T02:29:41;14.20;73.50
59771;DHT22;45649;53.014;6.600;2022-08-07T02:32:08;14.20;73.50
59771;DHT22;45649;53.014;6.600;2022-08-07T02:34:37;14.00;73.90
59771;DHT22;45649;53.014;6.600;2022-08-07T02:37:04;14.00;74.50
59771;DHT22;45649;53.014;6.600;2022-08-07T02:39:34;14.00;74.30
59771;DHT22;45649;53.014;6.600;2022-08-07T02:42:01;14.00;73.90
59771;DHT22;45649;53.014;6.600;2022-08-07T02:44:28;14.00;74.00
59771;DHT22;45649;53.014;6.600;2022-08-07T02:46:57;14.10;73.60
59771;DHT22;45649;53.014;6.600;2022-08-07T02:49:23;14.10;73.50
59771;DHT22;45649;53.014;6.600;2022-08-07T02:51:51;14.20;73.60
59771;DHT22;45649;53.014;6.600;2022-08-07T02:54:21;14.10;73.70
59771;DHT22;45649;53.014;6.600;2022-08-07T02:56:49;13.90;74.20
59771;DHT22;45649;53.014;6.600;2022-08-07T02:59:18;13.90;73.90
59771;DHT22;45649;53.014;6.600;2022-08-07T03:01:45;14.00;73.80
59771;DHT22;45649;53.014;6.600;2022-08-07T03:04:12;14.00;73.60
59771;DHT22;45649;53.014;6.600;2022-08-07T03:06:43;14.00;73.80
59771;DHT22;45649;53.014;6.600;2022-08-07T03:09:09;14.00;74.10
59771;DHT22;45649;53.014;6.600;2022-08-07T03:11:36;13.90;74.10
59771;DHT22;45649;53.014;6.600;2022-08-07T03:14:03;13.80;74.00
59771;DHT22;45649;53.014;6.600;2022-08-07T03:16:30;13.90;73.70
59771;DHT22;45649;53.014;6.600;2022-08-07T03:19:00;13.80;73.50
59771;DHT22;45649;53.014;6.600;2022-08-07T03:21:27;13.80;73.40
59771;DHT22;45649;53.014;6.600;2022-08-07T03:23:57;13.80;73.50
59771;DHT22;45649;53.014;6.600;2022-08-07T03:26:27;13.80;73.50
59771;DHT22;45649;53.014;6.600;2022-08-07T03:28:54;13.70;73.10
59771;DHT22;45649;53.014;6.600;2022-08-07T03:31:21;13.70;73.10
59771;DHT22;45649;53.014;6.600;2022-08-07T03:33:58;13.60;73.20
59771;DHT22;45649;53.014;6.600;2022-08-07T03:36:25;13.50;73.70
59771;DHT22;45649;53.014;6.600;2022-08-07T03:38:54;13.40;74.10
59771;DHT22;45649;53.014;6.600;2022-08-07T03:41:22;13.50;73.90
59771;DHT22;45649;53.014;6.600;2022-08-07T03:43:48;13.50;73.80
59771;DHT22;45649;53.014;6.600;2022-08-07T03:46:14;13.50;74.10
59771;DHT22;45649;53.014;6.600;2022-08-07T03:48:41;13.40;74.70
59771;DHT22;45649;53.014;6.600;2022-08-07T03:51:07;13.20;75.00
59771;DHT22;45649;53.014;6.600;2022-08-07T03:53:33;13.20;74.60
59771;DHT22;45649;53.014;6.600;2022-08-07T03:56:00;13.30;74.20
59771;DHT22;45649;53.014;6.600;2022-08-07T03:58:26;13.30;73.80
59771;DHT22;45649;53.014;6.600;2022-08-07T04:00:55;13.30;73.60
59771;DHT22;45649;53.014;6.600;2022-08-07T04:03:21;13.40;73.60
59771;DHT22;45649;53.014;6.600;2022-08-07T04:05:48;13.70;74.20
59771;DHT22;45649;53.014;6.600;2022-08-07T04:08:14;13.50;73.30
59771;DHT22;45649;53.014;6.600;2022-08-07T04:10:41;13.50;73.30
59771;DHT22;45649;53.014;6.600;2022-08-07T04:13:09;13.40;73.20
59771;DHT22;45649;53.014;6.600;2022-08-07T04:15:35;13.30;73.50
59771;DHT22;45649;53.014;6.600;2022-08-07T04:18:01;13.30;73.70
59771;DHT22;45649;53.014;6.600;2022-08-07T04:20:28;13.30;73.90
59771;DHT22;45649;53.014;6.600;2022-08-07T04:22:54;13.30;73.50
59771;DHT22;45649;53.014;6.600;2022-08-07T04:25:22;13.30;73.20
59771;DHT22;45649;53.014;6.600;2022-08-07T04:27:48;13.20;74.40
59771;DHT22;45649;53.014;6.600;2022-08-07T04:30:14;13.30;73.50
59771;DHT22;45649;53.014;6.600;2022-08-07T04:32:40;13.20;73.30
59771;DHT22;45649;53.014;6.600;2022-08-07T04:35:07;13.20;73.40
59771;DHT22;45649;53.014;6.600;2022-08-07T04:37:34;13.20;74.00
59771;DHT22;45649;53.014;6.600;2022-08-07T04:40:01;13.10;74.10
59771;DHT22;45649;53.014;6.600;2022-08-07T04:42:27;13.10;74.50
59771;DHT22;45649;53.014;6.600;2022-08-07T04:44:57;13.10;74.50
59771;DHT22;45649;53.014;6.600;2022-08-07T04:47:36;13.10;74.50
59771;DHT22;45649;53.014;6.600;2022-08-07T04:53:25;13.10;74.50
59771;DHT22;45649;53.014;6.600;2022-08-07T04:56:00;13.10;74.70
59771;DHT22;45649;53.014;6.600;2022-08-07T05:01:48;13.30;74.40
59771;DHT22;45649;53.014;6.600;2022-08-07T05:04:29;13.30;73.80
59771;DHT22;45649;53.014;6.600;2022-08-07T05:07:03;13.30;73.80
59771;DHT22;45649;53.014;6.600;2022-08-07T05:12:05;13.30;74.20
59771;DHT22;45649;53.014;6.600;2022-08-07T05:14:36;13.40;73.80
59771;DHT22;45649;53.014;6.600;2022-08-07T05:17:04;13.50;74.20
59771;DHT22;45649;53.014;6.600;2022-08-07T05:19:39;13.60;74.80
59771;DHT22;45649;53.014;6.600;2022-08-07T05:22:07;13.60;75.80
59771;DHT22;45649;53.014;6.600;2022-08-07T05:24:35;13.60;76.10
59771;DHT22;45649;53.014;6.600;2022-08-07T05:27:02;13.70;75.80
59771;DHT22;45649;53.014;6.600;2022-08-07T05:29:30;13.80;75.60
59771;DHT22;45649;53.014;6.600;2022-08-07T05:31:57;13.90;76.10
59771;DHT22;45649;53.014;6.600;2022-08-07T05:34:24;14.00;76.00
59771;DHT22;45649;53.014;6.600;2022-08-07T05:36:52;14.10;75.60
59771;DHT22;45649;53.014;6.600;2022-08-07T05:39:19;14.20;75.30
59771;DHT22;45649;53.014;6.600;2022-08-07T05:41:46;14.30;75.60
59771;DHT22;45649;53.014;6.600;2022-08-07T05:44:16;14.40;75.00
59771;DHT22;45649;53.014;6.600;2022-08-07T05:46:42;14.50;74.80
59771;DHT22;45649;53.014;6.600;2022-08-07T05:49:09;14.60;74.80
59771;DHT22;45649;53.014;6.600;2022-08-07T05:51:36;14.70;74.80
59771;DHT22;45649;53.014;6.600;2022-08-07T05:54:03;14.80;74.70
59771;DHT22;45649;53.014;6.600;2022-08-07T05:56:30;14.90;75.20
59771;DHT22;45649;53.014;6.600;2022-08-07T05:58:59;15.00;75.40
59771;DHT22;45649;53.014;6.600;2022-08-07T06:01:27;15.00;75.10
59771;DHT22;45649;53.014;6.600;2022-08-07T06:03:55;15.10;74.50
59771;DHT22;45649;53.014;6.600;2022-08-07T06:06:22;15.20;74.30
59771;DHT22;45649;53.014;6.600;2022-08-07T06:08:50;15.30;74.10
59771;DHT22;45649;53.014;6.600;2022-08-07T06:11:17;15.40;73.90
59771;DHT22;45649;53.014;6.600;2022-08-07T06:13:43;15.40;74.20
59771;DHT22;45649;53.014;6.600;2022-08-07T06:16:09;15.50;74.10
59771;DHT22;45649;53.014;6.600;2022-08-07T06:18:36;15.60;74.70
59771;DHT22;45649;53.014;6.600;2022-08-07T06:21:03;15.70;74.50
59771;DHT22;45649;53.014;6.600;2022-08-07T06:23:30;15.70;74.60
59771;DHT22;45649;53.014;6.600;2022-08-07T06:25:57;15.70;74.50
59771;DHT22;45649;53.014;6.600;2022-08-07T06:28:23;15.80;74.60
59771;DHT22;45649;53.014;6.600;2022-08-07T06:30:49;15.90;74.60
59771;DHT22;45649;53.014;6.600;2022-08-07T06:33:15;16.00;74.60
59771;DHT22;45649;53.014;6.600;2022-08-07T06:35:42;16.00;74.10
59771;DHT22;45649;53.014;6.600;2022-08-07T06:38:08;16.10;74.10
59771;DHT22;45649;53.014;6.600;2022-08-07T06:40:38;16.00;74.10
59771;DHT22;45649;53.014;6.600;2022-08-07T06:43:05;16.00;73.50
59771;DHT22;45649;53.014;6.600;2022-08-07T06:45:33;16.10;73.40
59771;DHT22;45649;53.014;6.600;2022-08-07T06:47:59;16.20;72.70
59771;DHT22;45649;53.014;6.600;2022-08-07T06:50:27;16.20;73.30
59771;DHT22;45649;53.014;6.600;2022-08-07T06:52:54;16.30;73.30
59771;DHT22;45649;53.014;6.600;2022-08-07T06:55:26;16.30;73.30
59771;DHT22;45649;53.014;6.600;2022-08-07T06:57:57;16.40;73.50
59771;DHT22;45649;53.014;6.600;2022-08-07T07:00:24;16.40;72.30
59771;DHT22;45649;53.014;6.600;2022-08-07T07:02:50;16.50;71.60
59771;DHT22;45649;53.014;6.600;2022-08-07T07:05:19;16.50;70.80
59771;DHT22;45649;53.014;6.600;2022-08-07T07:07:45;16.60;71.10
59771;DHT22;45649;53.014;6.600;2022-08-07T07:10:13;16.70;70.70
59771;DHT22;45649;53.014;6.600;2022-08-07T07:12:47;16.80;70.00
59771;DHT22;45649;53.014;6.600;2022-08-07T07:15:20;16.80;68.90
59771;DHT22;45649;53.014;6.600;2022-08-07T07:17:55;16.80;68.60
59771;DHT22;45649;53.014;6.600;2022-08-07T07:20:31;16.80;68.70
59771;DHT22;45649;53.014;6.600;2022-08-07T07:22:58;16.80;68.80
59771;DHT22;45649;53.014;6.600;2022-08-07T07:25:24;16.90;69.00
59771;DHT22;45649;53.014;6.600;2022-08-07T07:28:13;17.00;69.20
59771;DHT22;45649;53.014;6.600;2022-08-07T07:30:44;17.00;69.20
59771;DHT22;45649;53.014;6.600;2022-08-07T07:33:13;17.00;68.70
59771;DHT22;45649;53.014;6.600;2022-08-07T07:35:49;17.10;68.40
59771;DHT22;45649;53.014;6.600;2022-08-07T07:38:18;17.10;67.70
59771;DHT22;45649;53.014;6.600;2022-08-07T07:40:45;17.10;67.60
59771;DHT22;45649;53.014;6.600;2022-08-07T07:43:14;17.20;67.40
59771;DHT22;45649;53.014;6.600;2022-08-07T07:45:41;17.30;67.90
59771;DHT22;45649;53.014;6.600;2022-08-07T07:48:09;17.40;66.90
59771;DHT22;45649;53.014;6.600;2022-08-07T07:50:38;17.40;66.90
59771;DHT22;45649;53.014;6.600;2022-08-07T07:53:06;17.40;66.70
59771;DHT22;45649;53.014;6.600;2022-08-07T07:55:33;17.50;66.60
59771;DHT22;45649;53.014;6.600;2022-08-07T07:58:00;17.50;67.10
59771;DHT22;45649;53.014;6.600;2022-08-07T08:00:28;17.60;65.90
59771;DHT22;45649;53.014;6.600;2022-08-07T08:02:57;17.60;66.10
59771;DHT22;45649;53.014;6.600;2022-08-07T08:05:23;17.70;65.30
59771;DHT22;45649;53.014;6.600;2022-08-07T08:07:49;17.70;65.30
59771;DHT22;45649;53.014;6.600;2022-08-07T08:10:16;17.80;65.00
59771;DHT22;45649;53.014;6.600;2022-08-07T08:12:44;17.80;64.90
59771;DHT22;45649;53.014;6.600;2022-08-07T08:15:11;17.90;64.70
59771;DHT22;45649;53.014;6.600;2022-08-07T08:17:37;18.00;63.80
59771;DHT22;45649;53.014;6.600;2022-08-07T08:20:07;18.00;63.60
59771;DHT22;45649;53.014;6.600;2022-08-07T08:22:42;18.10;63.60
59771;DHT22;45649;53.014;6.600;2022-08-07T08:25:30;18.10;63.50
59771;DHT22;45649;53.014;6.600;2022-08-07T08:28:21;18.20;63.50
59771;DHT22;45649;53.014;6.600;2022-08-07T08:30:51;18.30;63.10
59771;DHT22;45649;53.014;6.600;2022-08-07T08:33:18;18.30;62.60
59771;DHT22;45649;53.014;6.600;2022-08-07T08:35:48;18.40;62.60
59771;DHT22;45649;53.014;6.600;2022-08-07T08:38:17;18.50;62.00
59771;DHT22;45649;53.014;6.600;2022-08-07T08:40:48;18.50;61.50
59771;DHT22;45649;53.014;6.600;2022-08-07T08:43:21;18.60;61.30
59771;DHT22;45649;53.014;6.600;2022-08-07T08:45:56;18.70;61.20
59771;DHT22;45649;53.014;6.600;2022-08-07T08:49:00;18.70;60.70
59771;DHT22;45649;53.014;6.600;2022-08-07T08:51:31;18.80;60.40
59771;DHT22;45649;53.014;6.600;2022-08-07T08:54:19;18.90;60.30
59771;DHT22;45649;53.014;6.600;2022-08-07T08:56:48;18.90;59.30
59771;DHT22;45649;53.014;6.600;2022-08-07T08:59:52;18.90;59.60
59771;DHT22;45649;53.014;6.600;2022-08-07T09:05:39;19.20;59.70
59771;DHT22;45649;53.014;6.600;2022-08-07T09:08:18;19.40;59.20
59771;DHT22;45649;53.014;6.600;2022-08-07T09:11:15;19.60;58.00
59771;DHT22;45649;53.014;6.600;2022-08-07T09:14:28;19.80;57.50
59771;DHT22;45649;53.014;6.600;2022-08-07T09:17:20;20.00;57.50
59771;DHT22;45649;53.014;6.600;2022-08-07T09:19:58;20.00;56.50
59771;DHT22;45649;53.014;6.600;2022-08-07T09:25:15;20.10;55.80
59771;DHT22;45649;53.014;6.600;2022-08-07T09:27:56;20.20;55.10
59771;DHT22;45649;53.014;6.600;2022-08-07T09:30:30;20.10;55.00
59771;DHT22;45649;53.014;6.600;2022-08-07T09:36:08;20.30;54.40
59771;DHT22;45649;53.014;6.600;2022-08-07T09:38:44;20.40;54.00
59771;DHT22;45649;53.014;6.600;2022-08-07T09:41:33;20.70;54.50
59771;DHT22;45649;53.014;6.600;2022-08-07T09:44:12;20.80;52.80
59771;DHT22;45649;53.014;6.600;2022-08-07T09:52:52;20.70;51.60
59771;DHT22;45649;53.014;6.600;2022-08-07T10:01:45;20.80;51.10
59771;DHT22;45649;53.014;6.600;2022-08-07T10:09:58;21.00;50.20
59771;DHT22;45649;53.014;6.600;2022-08-07T10:13:00;21.20;52.70
59771;DHT22;45649;53.014;6.600;2022-08-07T10:16:00;21.30;48.80
59771;DHT22;45649;53.014;6.600;2022-08-07T10:18:55;21.30;48.60
59771;DHT22;45649;53.014;6.600;2022-08-07T10:21:44;21.30;48.30
59771;DHT22;45649;53.014;6.600;2022-08-07T10:27:30;21.60;49.90
59771;DHT22;45649;53.014;6.600;2022-08-07T10:30:12;21.50;50.50
59771;DHT22;45649;53.014;6.600;2022-08-07T10:38:22;21.30;51.20
59771;DHT22;45649;53.014;6.600;2022-08-07T10:41:08;21.50;51.20
59771;DHT22;45649;53.014;6.600;2022-08-07T10:43:47;21.70;51.50
59771;DHT22;45649;53.014;6.600;2022-08-07T10:46:18;21.90;52.00
59771;DHT22;45649;53.014;6.600;2022-08-07T10:49:07;21.90;51.60
59771;DHT22;45649;53.014;6.600;2022-08-07T10:51:50;21.90;49.30
59771;DHT22;45649;53.014;6.600;2022-08-07T10:57:18;22.10;50.20
59771;DHT22;45649;53.014;6.600;2022-08-07T11:00:10;22.20;49.30
59771;DHT22;45649;53.014;6.600;2022-08-07T11:02:52;22.30;45.20
59771;DHT22;45649;53.014;6.600;2022-08-07T11:05:35;22.30;47.40
59771;DHT22;45649;53.014;6.600;2022-08-07T11:08:17;22.40;47.70
59771;DHT22;45649;53.014;6.600;2022-08-07T11:10:51;22.60;48.30
59771;DHT22;45649;53.014;6.600;2022-08-07T11:16:06;22.70;46.90
59771;DHT22;45649;53.014;6.600;2022-08-07T11:18:49;22.50;44.80
59771;DHT22;45649;53.014;6.600;2022-08-07T11:26:56;22.80;44.60
59771;DHT22;45649;53.014;6.600;2022-08-07T11:29:37;22.90;50.00
59771;DHT22;45649;53.014;6.600;2022-08-07T11:32:14;22.90;50.60
59771;DHT22;45649;53.014;6.600;2022-08-07T11:37:49;23.10;48.50
59771;DHT22;45649;53.014;6.600;2022-08-07T11:40:28;23.10;45.00
59771;DHT22;45649;53.014;6.600;2022-08-07T11:48:44;23.20;44.40
59771;DHT22;45649;53.014;6.600;2022-08-07T11:54:14;22.90;42.80
59771;DHT22;45649;53.014;6.600;2022-08-07T11:59:58;23.10;41.80
59771;DHT22;45649;53.014;6.600;2022-08-07T12:05:19;23.30;48.20
59771;DHT22;45649;53.014;6.600;2022-08-07T12:08:00;23.40;49.90
59771;DHT22;45649;53.014;6.600;2022-08-07T12:11:03;23.40;43.20
59771;DHT22;45649;53.014;6.600;2022-08-07T12:13:46;23.10;38.70
59771;DHT22;45649;53.014;6.600;2022-08-07T12:16:21;23.10;40.10
59771;DHT22;45649;53.014;6.600;2022-08-07T12:21:32;23.10;42.00
59771;DHT22;45649;53.014;6.600;2022-08-07T12:24:07;23.10;42.50
59771;DHT22;45649;53.014;6.600;2022-08-07T12:27:01;23.00;41.90
59771;DHT22;45649;53.014;6.600;2022-08-07T12:29:52;23.30;42.90
59771;DHT22;45649;53.014;6.600;2022-08-07T12:35:09;23.30;43.60
59771;DHT22;45649;53.014;6.600;2022-08-07T12:37:36;23.30;46.70
59771;DHT22;45649;53.014;6.600;2022-08-07T12:40:05;23.10;46.20
59771;DHT22;45649;53.014;6.600;2022-08-07T12:42:33;23.00;46.80
59771;DHT22;45649;53.014;6.600;2022-08-07T12:45:07;23.10;44.50
59771;DHT22;45649;53.014;6.600;2022-08-07T12:50:38;23.10;47.30
59771;DHT22;45649;53.014;6.600;2022-08-07T12:56:06;23.20;47.00
59771;DHT22;45649;53.014;6.600;2022-08-07T12:58:39;23.20;46.10
59771;DHT22;45649;53.014;6.600;2022-08-07T13:04:03;23.40;45.30
59771;DHT22;45649;53.014;6.600;2022-08-07T13:06:51;23.50;43.20
59771;DHT22;45649;53.014;6.600;2022-08-07T13:09:40;23.50;45.10
59771;DHT22;45649;53.014;6.600;2022-08-07T13:17:57;23.50;44.90
59771;DHT22;45649;53.014;6.600;2022-08-07T13:20:34;23.50;46.10
59771;DHT22;45649;53.014;6.600;2022-08-07T13:23:18;23.50;45.10
59771;DHT22;45649;53.014;6.600;2022-08-07T13:25:52;23.50;45.40
59771;DHT22;45649;53.014;6.600;2022-08-07T13:28:29;23.60;46.70
59771;DHT22;45649;53.014;6.600;2022-08-07T13:31:04;23.60;43.10
59771;DHT22;45649;53.014;6.600;2022-08-07T13:33:44;23.60;45.20
59771;DHT22;45649;53.014;6.600;2022-08-07T13:36:27;23.60;43.30
59771;DHT22;45649;53.014;6.600;2022-08-07T13:41:51;23.50;42.50
59771;DHT22;45649;53.014;6.600;2022-08-07T13:44:23;23.50;44.60
59771;DHT22;45649;53.014;6.600;2022-08-07T13:46:52;23.40;44.10
59771;DHT22;45649;53.014;6.600;2022-08-07T13:49:21;23.10;44.70
59771;DHT22;45649;53.014;6.600;2022-08-07T13:51:49;22.90;45.60
59771;DHT22;45649;53.014;6.600;2022-08-07T13:54:20;22.80;46.50
59771;DHT22;45649;53.014;6.600;2022-08-07T13:56:53;22.90;47.10
59771;DHT22;45649;53.014;6.600;2022-08-07T13:59:24;22.90;46.80
59771;DHT22;45649;53.014;6.600;2022-08-07T14:01:59;22.90;46.10
59771;DHT22;45649;53.014;6.600;2022-08-07T14:04:58;23.00;46.70
59771;DHT22;45649;53.014;6.600;2022-08-07T14:07:31;23.10;46.60
59771;DHT22;45649;53.014;6.600;2022-08-07T14:10:00;23.20;47.40
59771;DHT22;45649;53.014;6.600;2022-08-07T14:12:56;23.20;47.40
59771;DHT22;45649;53.014;6.600;2022-08-07T14:15:39;23.40;47.50
59771;DHT22;45649;53.014;6.600;2022-08-07T14:18:12;23.30;46.90
59771;DHT22;45649;53.014;6.600;2022-08-07T14:20:41;23.30;47.10
59771;DHT22;45649;53.014;6.600;2022-08-07T14:23:13;23.40;45.90
59771;DHT22;45649;53.014;6.600;2022-08-07T14:25:41;23.60;46.70
59771;DHT22;45649;53.014;6.600;2022-08-07T14:28:10;23.80;47.50
59771;DHT22;45649;53.014;6.600;2022-08-07T14:30:38;23.80;47.00
59771;DHT22;45649;53.014;6.600;2022-08-07T14:33:09;23.90;45.90
59771;DHT22;45649;53.014;6.600;2022-08-07T14:35:38;23.80;44.90
59771;DHT22;45649;53.014;6.600;2022-08-07T14:38:07;23.60;44.80
59771;DHT22;45649;53.014;6.600;2022-08-07T14:40:34;23.70;46.40
59771;DHT22;45649;53.014;6.600;2022-08-07T14:43:09;23.90;46.70
59771;DHT22;45649;53.014;6.600;2022-08-07T14:45:43;23.80;45.60
59771;DHT22;45649;53.014;6.600;2022-08-07T14:48:10;23.80;47.40
59771;DHT22;45649;53.014;6.600;2022-08-07T14:50:49;23.80;47.20
59771;DHT22;45649;53.014;6.600;2022-08-07T14:53:18;23.90;50.40
59771;DHT22;45649;53.014;6.600;2022-08-07T14:55:46;24.10;50.50
59771;DHT22;45649;53.014;6.600;2022-08-07T14:58:14;23.90;48.10
59771;DHT22;45649;53.014;6.600;2022-08-07T15:00:47;23.80;48.00
59771;DHT22;45649;53.014;6.600;2022-08-07T15:03:18;23.60;46.40
59771;DHT22;45649;53.014;6.600;2022-08-07T15:05:47;23.70;50.00
59771;DHT22;45649;53.014;6.600;2022-08-07T15:08:21;23.50;46.70
59771;DHT22;45649;53.014;6.600;2022-08-07T15:11:05;23.60;47.60
59771;DHT22;45649;53.014;6.600;2022-08-07T15:13:34;23.60;45.90
59771;DHT22;45649;53.014;6.600;2022-08-07T15:16:05;23.70;48.50
59771;DHT22;45649;53.014;6.600;2022-08-07T15:18:37;23.80;48.00
59771;DHT22;45649;53.014;6.600;2022-08-07T15:21:25;23.60;46.30
59771;DHT22;45649;53.014;6.600;2022-08-07T15:24:00;23.40;44.80
59771;DHT22;45649;53.014;6.600;2022-08-07T15:26:47;23.40;47.00
59771;DHT22;45649;53.014;6.600;2022-08-07T15:29:17;23.40;46.20
59771;DHT22;45649;53.014;6.600;2022-08-07T15:31:47;23.40;48.20
59771;DHT22;45649;53.014;6.600;2022-08-07T15:34:13;23.40;48.00
59771;DHT22;45649;53.014;6.600;2022-08-07T15:36:41;23.50;49.70
59771;DHT22;45649;53.014;6.600;2022-08-07T15:39:08;23.50;47.00
59771;DHT22;45649;53.014;6.600;2022-08-07T15:42:02;23.50;48.40
59771;DHT22;45649;53.014;6.600;2022-08-07T15:44:44;23.60;46.80
59771;DHT22;45649;53.014;6.600;2022-08-07T15:47:12;23.50;46.60
59771;DHT22;45649;53.014;6.600;2022-08-07T15:49:42;23.30;47.30
59771;DHT22;45649;53.014;6.600;2022-08-07T15:52:09;23.30;47.80
59771;DHT22;45649;53.014;6.600;2022-08-07T15:54:38;23.30;48.30
59771;DHT22;45649;53.014;6.600;2022-08-07T15:57:07;23.20;48.90
59771;DHT22;45649;53.014;6.600;2022-08-07T15:59:36;23.20;48.70
59771;DHT22;45649;53.014;6.600;2022-08-07T16:02:05;23.20;49.50
59771;DHT22;45649;53.014;6.600;2022-08-07T16:04:33;23.10;48.60
59771;DHT22;45649;53.014;6.600;2022-08-07T16:07:06;23.00;47.90
59771;DHT22;45649;53.014;6.600;2022-08-07T16:09:48;22.90;48.80
59771;DHT22;45649;53.014;6.600;2022-08-07T16:20:52;22.70;49.30
59771;DHT22;45649;53.014;6.600;2022-08-07T16:32:09;22.50;50.90
59771;DHT22;45649;53.014;6.600;2022-08-07T16:55:00;22.40;51.40
59771;DHT22;45649;53.014;6.600;2022-08-07T17:01:08;22.50;49.50
59771;DHT22;45649;53.014;6.600;2022-08-07T17:03:49;22.60;49.80
59771;DHT22;45649;53.014;6.600;2022-08-07T17:09:52;22.70;50.00
59771;DHT22;45649;53.014;6.600;2022-08-07T17:12:36;22.80;48.90
59771;DHT22;45649;53.014;6.600;2022-08-07T17:15:18;22.90;47.90
59771;DHT22;45649;53.014;6.600;2022-08-07T17:17:56;22.80;46.60
59771;DHT22;45649;53.014;6.600;2022-08-07T17:20:38;22.70;46.50
59771;DHT22;45649;53.014;6.600;2022-08-07T17:23:30;22.80;47.40
59771;DHT22;45649;53.014;6.600;2022-08-07T17:26:18;22.80;48.00
59771;DHT22;45649;53.014;6.600;2022-08-07T17:31:29;22.60;49.10
59771;DHT22;45649;53.014;6.600;2022-08-07T17:34:09;22.50;49.70
59771;DHT22;45649;53.014;6.600;2022-08-07T17:36:39;22.30;50.60
59771;DHT22;45649;53.014;6.600;2022-08-07T17:39:11;22.20;51.90
59771;DHT22;45649;53.014;6.600;2022-08-07T17:41:56;22.20;52.70
59771;DHT22;45649;53.014;6.600;2022-08-07T17:44:53;22.20;53.30
59771;DHT22;45649;53.014;6.600;2022-08-07T17:47:43;22.20;54.30
59771;DHT22;45649;53.014;6.600;2022-08-07T17:50:41;22.00;55.50
59771;DHT22;45649;53.014;6.600;2022-08-07T17:53:29;21.90;56.30
59771;DHT22;45649;53.014;6.600;2022-08-07T17:56:30;21.80;56.70
59771;DHT22;45649;53.014;6.600;2022-08-07T17:59:00;21.90;57.10
59771;DHT22;45649;53.014;6.600;2022-08-07T18:09:36;21.80;58.40
59771;DHT22;45649;53.014;6.600;2022-08-07T18:12:16;21.80;58.30
59771;DHT22;45649;53.014;6.600;2022-08-07T18:14:58;21.80;59.50
59771;DHT22;45649;53.014;6.600;2022-08-07T18:17:44;21.70;58.30
59771;DHT22;45649;53.014;6.600;2022-08-07T18:20:14;21.70;58.40
59771;DHT22;45649;53.014;6.600;2022-08-07T18:22:56;21.70;58.60
59771;DHT22;45649;53.014;6.600;2022-08-07T18:25:25;21.60;59.30
59771;DHT22;45649;53.014;6.600;2022-08-07T18:28:18;21.50;59.30
59771;DHT22;45649;53.014;6.600;2022-08-07T18:36:08;21.30;60.80
59771;DHT22;45649;53.014;6.600;2022-08-07T18:38:48;21.20;61.50
59771;DHT22;45649;53.014;6.600;2022-08-07T18:44:22;21.10;61.40
59771;DHT22;45649;53.014;6.600;2022-08-07T18:47:09;21.10;61.70